Time;durP1;ratioP1;P1;durP2;ratioP2;P2;SDS_P1;SDS_P2;PMS_P1;PMS_P2;Temp;Humidity;BMP_temperature;BMP_pressure;BME280_temperature;BME280_humidity;BME280_pressure;Samples;Min_cycle;Max_cycle;Signal;HPM_P1;HPM_P2
2022/06/06 00:02:16;;;;;;;26.00;17.92;;;19.50;72.60;;;;;;4930251;29;20102;-52
2022/06/06 00:04:43;;;;;;;29.40;18.80;;;19.40;72.40;;;;;;4914367;29;20107;-52
2022/06/06 00:07:12;;;;;;;27.55;18.70;;;19.50;72.50;;;;;;4914064;29;20469;-53
2022/06/06 00:09:40;;;;;;;26.30;16.67;;;19.40;72.40;;;;;;4911376;29;20104;-52
2022/06/06 00:12:08;;;;;;;25.02;16.83;;;19.40;72.30;;;;;;4919569;29;20044;-54
2022/06/06 00:14:37;;;;;;;28.85;18.80;;;19.40;72.30;;;;;;4913908;29;20132;-53
2022/06/06 00:17:04;;;;;;;25.08;16.75;;;19.40;72.20;;;;;;4914230;29;20107;-54
2022/06/06 00:19:31;;;;;;;25.52;17.80;;;19.40;72.20;;;;;;4924800;29;20055;-54
2022/06/06 00:21:58;;;;;;;24.15;16.33;;;19.40;72.60;;;;;;4924997;29;20043;-54
2022/06/06 00:24:32;;;;;;;26.85;17.38;;;19.50;72.80;;;;;;4932822;29;20063;-54
2022/06/06 00:27:05;;;;;;;23.92;16.20;;;19.40;72.70;;;;;;4925519;29;20035;-55
2022/06/06 00:29:35;;;;;;;24.02;17.13;;;19.40;72.90;;;;;;4922437;29;20047;-55
2022/06/06 00:34:51;;;;;;;25.88;16.17;;;19.40;73.00;;;;;;4919131;29;20488;-55
2022/06/06 00:37:24;;;;;;;24.65;16.98;;;19.20;73.00;;;;;;4923449;29;20067;-55
2022/06/06 00:39:54;;;;;;;24.55;16.35;;;19.30;73.40;;;;;;4924628;29;20127;-54
2022/06/06 00:42:25;;;;;;;22.70;15.32;;;19.30;73.30;;;;;;4934192;29;20081;-55
2022/06/06 00:45:12;;;;;;;26.77;16.90;;;19.30;73.70;;;;;;4919865;29;20043;-55
2022/06/06 00:47:41;;;;;;;24.25;16.42;;;19.20;74.10;;;;;;4921964;29;20036;-56
2022/06/06 00:50:14;;;;;;;27.15;16.98;;;19.20;73.90;;;;;;4929581;29;20086;-55
2022/06/06 00:52:49;;;;;;;27.83;17.10;;;19.20;74.50;;;;;;4934344;29;20070;-55
2022/06/06 00:55:25;;;;;;;28.17;16.80;;;19.20;74.50;;;;;;4918181;29;20040;-56
2022/06/06 00:58:08;;;;;;;25.77;16.67;;;19.20;74.80;;;;;;4924562;29;20122;-56
2022/06/06 01:00:37;;;;;;;26.25;17.23;;;19.30;74.80;;;;;;4933385;29;20106;-55
2022/06/06 01:03:11;;;;;;;28.55;18.33;;;19.30;74.70;;;;;;4917939;29;20107;-55
2022/06/06 01:05:40;;;;;;;26.15;17.23;;;19.20;74.80;;;;;;4920026;29;20310;-54
2022/06/06 01:08:07;;;;;;;27.45;18.52;;;19.20;74.60;;;;;;4925167;29;20321;-56
2022/06/06 01:10:36;;;;;;;26.42;17.90;;;19.20;74.70;;;;;;4906547;29;20477;-56
2022/06/06 01:13:08;;;;;;;28.20;19.67;;;19.20;74.70;;;;;;4917898;29;20047;-54
2022/06/06 01:15:49;;;;;;;31.23;18.25;;;19.20;74.80;;;;;;4913630;29;20036;-55
2022/06/06 01:19:14;;;;;;;28.77;18.40;;;19.20;75.00;;;;;;4921896;29;20063;-55
2022/06/06 01:22:17;;;;;;;25.70;17.10;;;19.20;75.20;;;;;;4910286;29;20048;-53
2022/06/06 01:25:21;;;;;;;28.98;17.95;;;19.20;75.20;;;;;;4899909;29;20032;-56
2022/06/06 01:28:25;;;;;;;28.08;17.25;;;19.20;75.60;;;;;;4932269;29;20043;-54
2022/06/06 01:30:58;;;;;;;27.15;17.38;;;19.20;75.20;;;;;;4922188;29;20048;-53
2022/06/06 01:33:45;;;;;;;29.05;18.35;;;19.20;75.60;;;;;;4920691;29;20044;-54
2022/06/06 01:36:12;;;;;;;33.88;18.48;;;19.20;74.90;;;;;;4921293;29;20544;-55
2022/06/06 01:38:41;;;;;;;30.33;18.35;;;19.20;75.00;;;;;;4933284;29;20078;-54
2022/06/06 01:41:14;;;;;;;27.13;17.02;;;19.20;75.30;;;;;;4927430;29;20039;-55
2022/06/06 01:44:05;;;;;;;25.23;16.50;;;19.20;74.90;;;;;;4920313;29;20044;-55
2022/06/06 01:46:38;;;;;;;24.80;15.13;;;19.20;74.90;;;;;;4924561;29;20508;-55
2022/06/06 01:49:12;;;;;;;21.80;14.93;;;19.20;74.50;;;;;;4926678;29;20043;-54
2022/06/06 01:51:41;;;;;;;22.02;15.48;;;19.20;74.70;;;;;;4914871;29;20386;-56
2022/06/06 01:54:14;;;;;;;21.73;13.80;;;19.20;74.50;;;;;;4923322;29;20063;-52
2022/06/06 01:56:40;;;;;;;21.13;14.20;;;19.20;74.50;;;;;;4932126;29;20043;-53
2022/06/06 01:59:07;;;;;;;18.10;13.05;;;19.20;74.60;;;;;;4929242;29;20079;-55
2022/06/06 02:01:39;;;;;;;20.48;13.18;;;19.20;74.30;;;;;;4923835;29;20071;-53
2022/06/06 02:04:05;;;;;;;19.42;12.13;;;19.20;74.50;;;;;;4924721;29;20051;-53
2022/06/06 02:06:38;;;;;;;20.73;12.02;;;19.10;74.10;;;;;;4946645;29;20126;-55
2022/06/06 02:09:10;;;;;;;17.38;12.15;;;19.20;74.20;;;;;;4919921;29;20040;-54
2022/06/06 02:11:37;;;;;;;15.15;11.20;;;19.10;74.20;;;;;;4913124;29;20464;-56
2022/06/06 02:14:04;;;;;;;14.95;10.27;;;19.10;74.10;;;;;;4924631;29;20507;-55
2022/06/06 02:16:39;;;;;;;14.48;10.73;;;19.10;74.10;;;;;;4915627;29;20456;-55
2022/06/06 02:19:11;;;;;;;;;;;19.00;74.00;;;;;;4916692;29;20055;-55
2022/06/06 02:21:37;;;;;;;14.88;9.65;;;19.10;74.00;;;;;;4905858;29;19923;-53
2022/06/06 02:24:09;;;;;;;17.55;10.98;;;19.00;73.70;;;;;;4921455;29;20044;-53
2022/06/06 02:26:36;;;;;;;14.98;9.85;;;19.00;73.80;;;;;;4911696;29;20091;-55
2022/06/06 02:29:02;;;;;;;13.60;8.95;;;19.00;73.70;;;;;;4912997;29;20445;-55
2022/06/06 02:31:38;;;;;;;11.38;9.32;;;19.00;73.60;;;;;;4922810;29;20750;-54
2022/06/06 02:34:07;;;;;;;13.05;9.20;;;19.00;73.60;;;;;;4923670;29;20110;-56
2022/06/06 02:36:38;;;;;;;12.40;8.73;;;18.90;73.40;;;;;;4946413;28;20114;-53
2022/06/06 02:39:14;;;;;;;12.98;9.25;;;18.90;73.40;;;;;;4920673;29;20040;-55
2022/06/06 02:41:41;;;;;;;10.95;8.43;;;18.90;73.30;;;;;;4922977;29;20098;-53
2022/06/06 02:44:10;;;;;;;13.60;9.10;;;18.80;73.40;;;;;;4931790;29;20412;-54
2022/06/06 02:46:42;;;;;;;15.05;9.25;;;18.80;73.60;;;;;;4926071;29;20059;-55
2022/06/06 02:49:09;;;;;;;11.35;8.40;;;18.80;73.90;;;;;;4920141;29;20096;-55
2022/06/06 02:51:36;;;;;;;10.98;8.52;;;18.80;73.80;;;;;;4923765;29;20044;-56
2022/06/06 02:54:04;;;;;;;12.20;8.63;;;18.80;73.90;;;;;;4902206;29;20172;-55
2022/06/06 02:56:34;;;;;;;11.98;8.05;;;18.80;73.80;;;;;;4905243;29;20052;-55
2022/06/06 02:59:13;;;;;;;12.27;8.85;;;18.80;73.90;;;;;;4912372;29;20109;-56
2022/06/06 03:01:39;;;;;;;11.15;7.53;;;18.80;73.90;;;;;;4909192;29;20036;-53
2022/06/06 03:04:06;;;;;;;11.50;8.90;;;18.80;73.70;;;;;;4907981;29;20039;-55
2022/06/06 03:06:54;;;;;;;11.95;8.43;;;18.80;73.70;;;;;;4913654;29;20044;-54
2022/06/06 03:09:47;;;;;;;11.55;8.68;;;18.80;73.60;;;;;;4915089;29;20504;-54
2022/06/06 03:12:41;;;;;;;12.13;8.77;;;18.80;73.40;;;;;;4909455;29;20040;-55
2022/06/06 03:22:06;;;;;;;13.85;9.25;;;18.80;72.80;;;;;;4907841;29;20111;-54
2022/06/06 03:25:03;;;;;;;12.95;9.05;;;18.80;72.50;;;;;;4922450;29;20059;-52
2022/06/06 03:27:53;;;;;;;12.10;8.88;;;18.80;72.60;;;;;;4928673;29;20044;-53
2022/06/06 03:30:54;;;;;;;11.38;8.63;;;18.70;72.50;;;;;;4931746;29;20098;-54
2022/06/06 03:33:24;;;;;;;12.52;9.43;;;18.70;72.50;;;;;;4919165;29;20044;-56
2022/06/06 03:36:09;;;;;;;12.45;9.20;;;18.60;72.30;;;;;;4917944;29;20043;-55
2022/06/06 03:38:39;;;;;;;14.07;9.55;;;18.60;72.60;;;;;;4898382;29;20057;-56
2022/06/06 03:41:21;;;;;;;14.77;9.23;;;18.60;72.40;;;;;;4912490;29;20044;-55
2022/06/06 03:44:33;;;;;;;15.02;10.15;;;18.50;72.30;;;;;;4917086;29;20048;-56
2022/06/06 03:47:26;;;;;;;13.25;9.55;;;18.50;72.30;;;;;;4920019;29;20040;-55
2022/06/06 03:50:14;;;;;;;12.02;9.77;;;18.50;72.40;;;;;;4935276;29;20040;-56
2022/06/06 03:53:08;;;;;;;14.65;9.02;;;18.50;72.40;;;;;;4928283;29;20040;-56
2022/06/06 03:55:55;;;;;;;13.23;9.27;;;18.50;72.40;;;;;;4928228;29;20052;-54
2022/06/06 03:58:25;;;;;;;13.77;10.10;;;18.40;72.60;;;;;;4933354;29;20043;-54
2022/06/06 04:00:55;;;;;;;13.35;9.45;;;18.40;72.40;;;;;;4935114;29;20051;-56
2022/06/06 04:03:24;;;;;;;13.82;9.65;;;18.40;72.40;;;;;;4923434;29;20055;-55
2022/06/06 04:05:54;;;;;;;13.40;9.85;;;18.30;72.50;;;;;;4922910;29;20504;-55
2022/06/06 04:08:23;;;;;;;12.88;8.85;;;18.30;72.40;;;;;;4927303;29;20127;-55
2022/06/06 04:11:13;;;;;;;15.63;8.50;;;18.30;72.40;;;;;;4909740;29;20044;-54
2022/06/06 04:14:00;;;;;;;14.25;9.68;;;18.20;72.40;;;;;;4921233;29;20596;-56
2022/06/06 04:16:45;;;;;;;14.45;9.55;;;18.20;72.50;;;;;;4926509;29;20504;-56
2022/06/06 04:19:20;;;;;;;13.30;9.50;;;18.20;72.40;;;;;;4933408;29;20050;-56
2022/06/06 04:22:07;;;;;;;13.52;9.63;;;18.20;73.20;;;;;;4920402;29;20035;-56
2022/06/06 04:25:02;;;;;;;14.93;10.20;;;18.20;72.60;;;;;;4926367;29;20103;-54
2022/06/06 04:27:53;;;;;;;12.98;9.05;;;18.20;72.80;;;;;;4935951;29;20076;-53
2022/06/06 04:30:36;;;;;;;11.88;9.10;;;18.20;72.80;;;;;;4927531;29;20520;-55
2022/06/06 04:33:18;;;;;;;12.73;8.93;;;18.20;72.70;;;;;;4921767;29;20035;-54
2022/06/06 04:36:16;;;;;;;12.60;9.05;;;18.20;72.50;;;;;;4920506;29;20130;-56
2022/06/06 04:38:59;;;;;;;12.85;8.88;;;18.20;72.30;;;;;;4929430;29;20565;-55
2022/06/06 04:41:58;;;;;;;14.63;8.95;;;18.20;72.10;;;;;;4925087;29;20108;-54
2022/06/06 04:44:54;;;;;;;12.10;8.25;;;18.20;72.30;;;;;;4917877;29;20060;-54
2022/06/06 04:47:35;;;;;;;13.10;8.60;;;18.30;72.10;;;;;;4914964;29;20044;-55
2022/06/06 04:50:13;;;;;;;12.25;7.47;;;18.30;71.70;;;;;;4920467;29;20047;-55
2022/06/06 04:52:47;;;;;;;11.55;8.00;;;18.30;71.40;;;;;;4916362;29;20044;-56
2022/06/06 04:55:15;;;;;;;10.63;7.80;;;18.30;71.00;;;;;;4914743;29;20516;-56
2022/06/06 04:57:47;;;;;;;9.23;6.70;;;18.30;70.50;;;;;;4916278;29;20259;-54
2022/06/06 05:00:20;;;;;;;11.43;7.90;;;18.20;70.50;;;;;;4917624;29;20044;-55
2022/06/06 05:02:48;;;;;;;10.27;6.82;;;18.20;70.50;;;;;;4919610;29;20054;-56
2022/06/06 05:05:14;;;;;;;11.60;6.72;;;18.10;70.20;;;;;;4913301;29;20126;-55
2022/06/06 05:08:22;;;;;;;9.55;6.05;;;18.10;70.20;;;;;;4918992;29;20043;-56
2022/06/06 05:10:55;;;;;;;9.00;6.18;;;18.10;69.70;;;;;;4909335;29;20040;-55
2022/06/06 05:13:28;;;;;;;7.95;6.22;;;18.10;69.50;;;;;;4913381;29;20040;-55
2022/06/06 05:16:27;;;;;;;10.02;5.88;;;18.10;69.60;;;;;;4914300;29;20048;-54
2022/06/06 05:19:10;;;;;;;9.98;6.07;;;18.00;69.60;;;;;;4908967;29;20052;-54
2022/06/06 05:21:52;;;;;;;8.48;5.75;;;18.00;69.30;;;;;;4918833;29;20043;-53
2022/06/06 05:24:43;;;;;;;9.35;5.80;;;18.00;69.30;;;;;;4920960;29;20052;-55
2022/06/06 05:27:44;;;;;;;9.98;6.32;;;18.00;69.50;;;;;;4934105;29;20098;-55
2022/06/06 05:30:41;;;;;;;6.53;5.72;;;18.00;69.20;;;;;;4923326;29;20519;-55
2022/06/06 05:33:45;;;;;;;6.45;5.50;;;17.90;69.20;;;;;;4922953;29;20058;-53
2022/06/06 05:36:20;;;;;;;11.70;5.82;;;17.90;69.00;;;;;;4915807;29;20057;-53
2022/06/06 05:39:09;;;;;;;8.88;5.95;;;17.90;69.40;;;;;;4927159;29;20044;-53
2022/06/06 05:42:16;;;;;;;7.03;4.90;;;17.90;69.20;;;;;;4895881;29;20043;-50
2022/06/06 05:44:51;;;;;;;8.35;5.38;;;17.90;69.10;;;;;;4908634;29;20087;-55
2022/06/06 05:47:41;;;;;;;7.43;5.38;;;17.90;69.40;;;;;;4922707;29;20509;-55
2022/06/06 05:50:25;;;;;;;8.80;5.43;;;18.00;70.20;;;;;;4926670;29;20036;-53
2022/06/06 05:53:05;;;;;;;8.80;5.47;;;18.00;69.90;;;;;;4931119;29;20463;-54
2022/06/06 05:56:09;;;;;;;8.02;4.97;;;18.00;70.20;;;;;;4919296;29;20055;-52
2022/06/06 05:59:16;;;;;;;6.07;4.72;;;18.10;68.90;;;;;;4914303;29;20110;-52
2022/06/06 06:02:19;;;;;;;7.43;4.60;;;18.10;68.40;;;;;;4923772;29;20055;-53
2022/06/06 06:05:13;;;;;;;8.85;4.95;;;18.10;68.40;;;;;;4911429;29;20084;-56
2022/06/06 06:08:04;;;;;;;6.95;4.60;;;18.20;68.60;;;;;;4916735;29;20044;-55
2022/06/06 06:10:37;;;;;;;6.25;4.43;;;18.20;68.10;;;;;;4914301;29;20047;-53
2022/06/06 06:13:16;;;;;;;6.07;4.60;;;18.30;68.30;;;;;;4910261;29;20040;-55
2022/06/06 06:15:44;;;;;;;4.82;4.13;;;18.30;67.30;;;;;;4917023;29;20416;-54
2022/06/06 06:18:17;;;;;;;5.20;3.83;;;18.30;67.40;;;;;;4916812;29;20052;-55
2022/06/06 06:20:51;;;;;;;5.03;4.53;;;18.30;67.00;;;;;;4965481;23;20050;-54
2022/06/06 06:23:25;;;;;;;3.70;2.97;;;18.30;66.50;;;;;;4953219;28;20063;-49
2022/06/06 06:25:53;;;;;;;5.68;3.83;;;18.40;66.70;;;;;;4949522;28;20051;-51
2022/06/06 06:28:25;;;;;;;11.20;5.57;;;18.40;66.60;;;;;;4950006;28;20105;-49
2022/06/06 06:31:02;;;;;;;4.72;3.50;;;18.40;66.20;;;;;;4935134;28;20035;-55
2022/06/06 06:33:54;;;;;;;7.22;3.83;;;18.30;66.20;;;;;;4938556;28;20098;-51
2022/06/06 06:36:40;;;;;;;4.13;3.25;;;18.40;66.20;;;;;;4928364;28;20103;-53
2022/06/06 06:39:15;;;;;;;5.10;3.30;;;18.40;65.60;;;;;;4945358;28;20050;-53
2022/06/06 06:42:04;;;;;;;5.82;3.30;;;18.40;65.70;;;;;;4931991;28;20114;-50
2022/06/06 06:44:44;;;;;;;5.50;2.65;;;18.40;65.70;;;;;;4953382;28;20395;-51
2022/06/06 06:47:18;;;;;;;5.72;3.05;;;18.50;66.60;;;;;;4937947;28;20035;-49
2022/06/06 06:49:53;;;;;;;3.30;2.58;;;18.50;66.60;;;;;;4941006;28;20035;-53
2022/06/06 06:52:35;;;;;;;4.07;2.83;;;18.50;66.80;;;;;;4933303;28;20512;-48
2022/06/06 06:55:13;;;;;;;3.30;2.40;;;18.50;65.90;;;;;;4938895;28;20047;-52
2022/06/06 06:57:58;;;;;;;3.53;2.45;;;18.70;63.70;;;;;;4931905;28;20043;-52
2022/06/06 07:00:25;;;;;;;3.00;2.45;;;18.70;64.10;;;;;;4943149;28;20094;-53
2022/06/06 07:09:34;;;;;;;3.63;2.50;;;18.90;64.50;;;;;;4942752;28;20051;-54
2022/06/06 07:12:30;;;;;;;2.88;2.20;;;18.90;63.30;;;;;;4941334;28;20039;-50
2022/06/06 07:15:06;;;;;;;2.00;1.83;;;19.00;63.20;;;;;;4941425;28;20040;-55
2022/06/06 07:17:39;;;;;;;1.77;1.65;;;19.00;62.60;;;;;;4933113;28;20038;-53
2022/06/06 07:20:12;;;;;;;3.75;1.90;;;19.00;62.50;;;;;;4949402;28;20129;-52
2022/06/06 07:25:34;;;;;;;3.28;1.65;;;19.10;62.50;;;;;;4941527;28;21342;-50
2022/06/06 07:28:01;;;;;;;2.70;1.20;;;19.10;62.90;;;;;;4933784;28;20074;-53
2022/06/06 07:30:37;;;;;;;2.80;1.70;;;19.10;62.20;;;;;;4948145;28;20527;-52
2022/06/06 07:33:03;;;;;;;1.98;1.58;;;19.20;61.80;;;;;;4939313;28;20240;-50
2022/06/06 07:35:44;;;;;;;1.42;1.33;;;19.20;62.40;;;;;;4938171;29;20508;-54
2022/06/06 07:38:49;;;;;;;1.48;1.38;;;19.30;61.00;;;;;;4934764;28;20047;-53
2022/06/06 07:41:18;;;;;;;1.38;1.20;;;19.30;60.80;;;;;;4940999;28;20098;-53
2022/06/06 07:44:01;;;;;;;2.67;1.30;;;19.30;61.20;;;;;;4942916;28;20051;-54
2022/06/06 07:46:46;;;;;;;1.45;0.98;;;19.40;60.40;;;;;;4934314;28;20043;-55
2022/06/06 07:49:35;;;;;;;2.47;1.08;;;19.40;60.00;;;;;;4947123;28;20039;-50
2022/06/06 07:52:55;;;;;;;1.23;0.88;;;19.40;60.10;;;;;;4947341;28;20039;-55
2022/06/06 07:55:33;;;;;;;2.40;1.23;;;19.50;60.20;;;;;;4912623;28;20079;-52
2022/06/06 07:58:35;;;;;;;2.92;1.02;;;19.60;60.60;;;;;;4941559;28;20586;-53
2022/06/06 08:01:19;;;;;;;0.70;0.70;;;19.60;59.50;;;;;;4939340;28;20046;-52
2022/06/06 08:03:50;;;;;;;1.80;0.60;;;19.70;60.00;;;;;;4941700;28;20066;-53
2022/06/06 08:06:30;;;;;;;1.90;0.73;;;19.70;59.10;;;;;;4943830;28;20051;-53
2022/06/06 08:09:21;;;;;;;1.33;0.90;;;19.70;58.90;;;;;;4947100;29;20039;-53
2022/06/06 08:12:25;;;;;;;1.30;0.90;;;19.80;59.20;;;;;;4937335;28;20047;-52
2022/06/06 08:14:58;;;;;;;1.73;0.73;;;19.80;59.30;;;;;;4932835;29;20087;-54
2022/06/06 08:17:29;;;;;;;1.40;1.05;;;19.80;59.30;;;;;;4940188;28;20063;-50
2022/06/06 08:20:22;;;;;;;1.25;0.75;;;19.90;59.90;;;;;;4961359;28;20494;-54
2022/06/06 08:22:52;;;;;;;0.60;0.60;;;20.00;59.20;;;;;;4931416;28;20114;-53
2022/06/06 08:25:20;;;;;;;0.90;0.80;;;20.10;59.80;;;;;;4948683;28;20043;-52
2022/06/06 08:27:50;;;;;;;3.33;1.98;;;20.20;59.40;;;;;;4946064;28;20105;-53
2022/06/06 08:30:19;;;;;;;1.33;0.75;;;20.30;59.20;;;;;;4945494;28;20047;-50
2022/06/06 08:32:47;;;;;;;1.95;1.20;;;20.40;58.80;;;;;;4940297;28;20122;-50
2022/06/06 08:35:15;;;;;;;4.05;0.70;;;20.50;58.60;;;;;;4967778;28;20051;-53
2022/06/06 08:38:04;;;;;;;0.63;0.60;;;20.60;58.00;;;;;;4941422;28;20055;-56
2022/06/06 08:40:33;;;;;;;1.98;0.60;;;20.70;56.90;;;;;;4947028;28;20110;-51
2022/06/06 08:43:03;;;;;;;0.82;0.70;;;20.80;57.00;;;;;;4936997;28;20091;-51
2022/06/06 08:46:07;;;;;;;0.98;0.88;;;20.90;55.90;;;;;;4954345;28;20665;-50
2022/06/06 08:48:54;;;;;;;0.50;0.50;;;21.00;55.20;;;;;;4944461;28;20106;-55
2022/06/06 08:51:37;;;;;;;0.40;0.40;;;21.10;55.10;;;;;;4938461;28;20099;-44
2022/06/06 08:54:23;;;;;;;0.40;0.40;;;21.20;55.00;;;;;;4953441;28;20058;-43
2022/06/06 08:57:36;;;;;;;1.85;0.52;;;21.20;55.40;;;;;;4931955;28;20053;-44
2022/06/06 09:00:12;;;;;;;1.27;0.60;;;21.30;55.30;;;;;;4936626;28;20568;-43
2022/06/06 09:03:15;;;;;;;1.08;0.60;;;21.30;56.00;;;;;;4932882;28;20043;-44
2022/06/06 09:06:07;;;;;;;1.27;0.68;;;21.40;55.40;;;;;;4950093;28;20032;-43
2022/06/06 09:09:20;;;;;;;2.70;0.70;;;21.50;54.90;;;;;;4936628;29;20055;-44
2022/06/06 09:12:19;;;;;;;0.63;0.50;;;21.60;54.90;;;;;;4931612;28;20040;-43
2022/06/06 09:15:17;;;;;;;1.85;0.43;;;21.60;54.40;;;;;;4943351;28;20054;-43
2022/06/06 09:18:25;;;;;;;1.10;0.50;;;21.70;53.70;;;;;;4934235;28;20047;-44
2022/06/06 09:21:21;;;;;;;0.95;0.55;;;21.70;53.00;;;;;;4922875;28;20122;-44
2022/06/06 09:24:28;;;;;;;0.63;0.57;;;21.80;53.70;;;;;;4942442;28;20086;-43
2022/06/06 09:27:29;;;;;;;6.75;0.98;;;21.90;53.50;;;;;;4935605;28;20063;-46
2022/06/06 09:30:06;;;;;;;1.55;0.82;;;21.90;53.40;;;;;;4940382;28;20039;-43
2022/06/06 09:32:51;;;;;;;1.00;0.90;;;22.00;53.30;;;;;;4938570;28;20454;-43
2022/06/06 09:35:41;;;;;;;1.15;0.73;;;22.10;53.50;;;;;;4966133;28;20046;-44
2022/06/06 09:38:13;;;;;;;3.03;0.95;;;22.20;53.70;;;;;;4928512;29;20074;-44
2022/06/06 09:40:51;;;;;;;0.93;0.85;;;22.20;53.60;;;;;;4951281;28;20051;-43
2022/06/06 09:43:49;;;;;;;2.00;0.93;;;22.30;53.50;;;;;;4950802;28;20035;-45
2022/06/06 09:46:38;;;;;;;1.40;1.20;;;22.40;52.00;;;;;;4951097;28;20043;-45
2022/06/06 09:49:14;;;;;;;2.22;0.80;;;22.50;51.90;;;;;;4942683;28;20031;-44
2022/06/06 09:52:02;;;;;;;0.95;0.80;;;22.60;53.30;;;;;;4933980;28;20200;-44
2022/06/06 10:01:16;;;;;;;3.28;0.70;;;22.70;52.00;;;;;;4940220;28;20517;-42
2022/06/06 10:04:15;;;;;;;0.70;0.60;;;22.90;52.10;;;;;;4945664;28;20082;-43
2022/06/06 10:07:03;;;;;;;1.80;0.50;;;22.90;50.30;;;;;;4932774;28;20051;-46
2022/06/06 10:10:03;;;;;;;2.20;0.80;;;23.00;51.70;;;;;;4953066;28;20043;-44
2022/06/06 10:12:57;;;;;;;2.63;0.80;;;23.00;50.50;;;;;;4939915;28;20043;-44
2022/06/06 10:16:02;;;;;;;2.05;1.10;;;23.00;52.40;;;;;;4942683;28;20048;-44
2022/06/06 10:18:35;;;;;;;3.35;1.13;;;22.90;52.40;;;;;;4944859;28;20203;-47
2022/06/06 10:21:17;;;;;;;1.27;1.10;;;22.70;54.20;;;;;;4938026;28;20974;-46
2022/06/06 10:24:23;;;;;;;1.15;1.10;;;22.40;54.90;;;;;;4942940;29;20043;-46
2022/06/06 10:27:21;;;;;;;1.15;0.98;;;22.10;55.70;;;;;;4925258;28;20055;-47
2022/06/06 10:30:12;;;;;;;1.98;0.70;;;21.70;58.20;;;;;;4945386;28;20043;-45
2022/06/06 10:32:58;;;;;;;0.82;0.70;;;21.20;59.00;;;;;;4931901;28;20039;-43
2022/06/06 10:35:47;;;;;;;1.65;0.68;;;21.00;58.20;;;;;;4940900;28;20043;-44
2022/06/06 10:38:32;;;;;;;1.75;0.60;;;20.80;59.40;;;;;;4935517;28;20887;-45
2022/06/06 10:41:17;;;;;;;1.58;0.70;;;20.60;59.50;;;;;;4936394;28;20039;-46
2022/06/06 10:44:03;;;;;;;1.80;0.70;;;20.50;59.80;;;;;;4938757;29;20099;-45
2022/06/06 10:47:00;;;;;;;2.10;0.63;;;20.40;61.30;;;;;;4932277;28;20811;-43
2022/06/06 10:50:07;;;;;;;0.95;0.60;;;20.40;62.10;;;;;;4958726;28;20047;-44
2022/06/06 10:53:00;;;;;;;0.47;0.40;;;20.40;61.10;;;;;;4927933;28;20106;-43
2022/06/06 10:55:55;;;;;;;1.23;0.50;;;20.40;60.50;;;;;;4949958;28;20056;-43
2022/06/06 10:58:39;;;;;;;1.40;0.63;;;20.30;61.40;;;;;;4940311;28;20043;-43
2022/06/06 11:01:24;;;;;;;0.60;0.60;;;20.20;60.40;;;;;;4939239;28;20771;-43
2022/06/06 11:04:26;;;;;;;1.30;0.90;;;20.20;61.90;;;;;;4948470;28;20051;-44
2022/06/06 11:07:14;;;;;;;1.10;1.00;;;20.10;61.30;;;;;;4934883;28;20099;-44
2022/06/06 11:09:57;;;;;;;2.33;0.80;;;20.10;60.40;;;;;;4930184;29;20051;-45
2022/06/06 11:12:40;;;;;;;1.10;0.93;;;20.10;61.30;;;;;;4933552;28;20399;-44
2022/06/06 11:15:07;;;;;;;2.17;0.88;;;20.10;61.80;;;;;;4950172;28;20503;-43
2022/06/06 11:18:04;;;;;;;2.35;0.88;;;20.20;63.10;;;;;;4942087;28;20069;-43
2022/06/06 11:20:55;;;;;;;0.80;0.80;;;20.30;63.60;;;;;;4934236;29;20043;-47
2022/06/06 11:24:13;;;;;;;1.65;0.80;;;20.40;61.90;;;;;;4945532;28;20598;-44
2022/06/06 11:27:00;;;;;;;1.23;1.05;;;20.60;61.30;;;;;;4942074;28;20043;-44
2022/06/06 11:29:40;;;;;;;1.08;0.82;;;20.80;59.60;;;;;;4950951;28;20467;-43
2022/06/06 11:32:31;;;;;;;0.75;0.70;;;20.90;60.00;;;;;;4934681;28;20056;-48
2022/06/06 11:35:21;;;;;;;1.00;1.00;;;21.10;60.50;;;;;;4948034;28;20043;-46
2022/06/06 11:38:09;;;;;;;1.52;0.90;;;21.30;61.30;;;;;;4944716;28;20067;-44
2022/06/06 11:40:45;;;;;;;1.33;0.70;;;21.50;59.30;;;;;;4955671;28;20055;-46
2022/06/06 11:43:22;;;;;;;0.50;0.50;;;21.70;57.80;;;;;;4939059;28;20125;-44
2022/06/06 11:46:42;;;;;;;0.93;0.50;;;22.00;55.10;;;;;;4960813;28;20051;-44
2022/06/06 11:49:24;;;;;;;0.98;0.52;;;22.30;55.10;;;;;;4910086;29;20052;-47
2022/06/06 11:51:59;;;;;;;0.77;0.63;;;22.50;53.50;;;;;;4935117;28;20103;-45
2022/06/06 11:54:54;;;;;;;2.45;0.68;;;22.70;53.60;;;;;;4965909;28;20053;-43
2022/06/06 11:57:45;;;;;;;1.58;0.90;;;22.80;52.80;;;;;;4944525;28;20055;-47
2022/06/06 12:00:25;;;;;;;1.13;0.68;;;22.90;52.30;;;;;;4949334;28;20047;-46
2022/06/06 12:03:19;;;;;;;1.58;0.82;;;22.90;51.60;;;;;;4936296;28;20649;-45
2022/06/06 12:06:12;;;;;;;0.80;0.80;;;22.90;51.50;;;;;;4947446;28;20522;-43
2022/06/06 12:08:54;;;;;;;1.63;0.80;;;23.00;51.80;;;;;;4946021;28;20035;-44
2022/06/06 12:11:48;;;;;;;0.60;0.60;;;23.00;50.70;;;;;;4944601;28;20047;-44
2022/06/06 12:15:01;;;;;;;3.00;0.70;;;23.10;49.80;;;;;;4954637;28;20070;-43
2022/06/06 12:17:43;;;;;;;1.42;1.00;;;23.10;50.60;;;;;;4939269;28;20522;-44
2022/06/06 12:20:28;;;;;;;1.20;0.77;;;23.30;50.10;;;;;;4956636;28;20105;-44
2022/06/06 12:23:08;;;;;;;1.42;1.25;;;23.30;50.00;;;;;;4941558;28;20042;-44
2022/06/06 12:26:07;;;;;;;1.77;0.82;;;23.30;48.40;;;;;;4953593;28;20043;-44
2022/06/06 12:28:57;;;;;;;0.75;0.60;;;23.40;47.50;;;;;;4941162;28;20039;-43
2022/06/06 12:31:46;;;;;;;1.85;1.10;;;23.40;49.30;;;;;;4939041;28;20673;-45
2022/06/06 12:34:21;;;;;;;6.28;0.63;;;23.50;47.90;;;;;;4951888;28;20431;-43
2022/06/06 12:37:19;;;;;;;1.00;0.60;;;23.50;47.50;;;;;;4937660;28;20043;-44
2022/06/06 12:39:51;;;;;;;0.60;0.60;;;23.60;46.80;;;;;;4948841;28;20055;-44
2022/06/06 12:42:31;;;;;;;0.60;0.60;;;23.70;47.90;;;;;;4934001;28;20122;-43
2022/06/06 12:45:21;;;;;;;3.65;0.55;;;23.80;47.10;;;;;;4948976;29;20039;-44
2022/06/06 12:48:18;;;;;;;0.57;0.47;;;24.00;46.40;;;;;;4931883;28;20043;-44
2022/06/06 12:51:18;;;;;;;0.40;0.40;;;24.00;46.50;;;;;;4947391;28;20043;-43
2022/06/06 12:54:15;;;;;;;0.55;0.50;;;24.20;47.10;;;;;;4945219;28;20551;-43
2022/06/06 12:57:10;;;;;;;2.55;0.88;;;24.40;46.40;;;;;;4936370;28;20125;-44
2022/06/06 13:00:00;;;;;;;0.43;0.43;;;24.70;45.80;;;;;;4964750;28;20059;-45
2022/06/06 13:03:06;;;;;;;1.60;0.70;;;24.90;45.50;;;;;;4931322;28;20107;-46
2022/06/06 13:05:51;;;;;;;1.00;0.60;;;25.20;44.70;;;;;;4955730;28;20047;-45
2022/06/06 13:08:27;;;;;;;1.98;0.50;;;25.50;44.30;;;;;;4941759;28;20381;-45
2022/06/06 13:11:19;;;;;;;0.73;0.30;;;25.70;43.80;;;;;;4955467;28;20051;-44
2022/06/06 13:14:13;;;;;;;0.93;0.40;;;25.90;43.40;;;;;;4948100;28;20062;-44
2022/06/06 13:16:45;;;;;;;1.13;0.50;;;26.10;43.40;;;;;;4932856;28;20084;-43
2022/06/06 13:22:16;;;;;;;4.57;0.57;;;26.20;42.50;;;;;;5043447;28;20488;-41
2022/06/06 13:24:49;;;;;;;2.05;0.50;;;26.40;42.10;;;;;;5035076;28;20052;-44
2022/06/06 13:27:24;;;;;;;1.50;0.50;;;26.50;41.20;;;;;;5026542;28;20029;-44
2022/06/06 13:29:51;;;;;;;0.90;0.38;;;26.60;41.70;;;;;;5040247;28;20099;-44
2022/06/06 13:32:32;;;;;;;0.30;0.30;;;26.60;41.30;;;;;;5028041;28;20048;-45
2022/06/06 13:35:11;;;;;;;0.73;0.40;;;26.60;41.30;;;;;;5042665;28;20103;-43
2022/06/06 13:37:59;;;;;;;1.08;0.60;;;26.50;40.20;;;;;;5026890;28;20079;-46
2022/06/06 13:40:42;;;;;;;0.73;0.35;;;26.50;40.60;;;;;;5041984;28;20449;-44
2022/06/06 13:43:37;;;;;;;0.57;0.50;;;26.40;40.40;;;;;;5026820;28;20045;-43
2022/06/06 13:46:22;;;;;;;1.35;0.40;;;26.30;40.60;;;;;;5022576;28;20129;-42
2022/06/06 13:48:58;;;;;;;2.05;0.60;;;26.20;40.40;;;;;;5042536;28;20057;-42
2022/06/06 13:51:37;;;;;;;0.45;0.40;;;26.20;40.30;;;;;;5030497;28;20056;-42
2022/06/06 13:54:10;;;;;;;1.80;0.40;;;26.10;40.90;;;;;;5032786;28;20041;-44
2022/06/06 13:56:50;;;;;;;0.77;0.50;;;26.10;40.80;;;;;;5030815;28;20049;-43
2022/06/06 13:59:29;;;;;;;0.47;0.40;;;26.20;41.50;;;;;;5040186;28;20041;-43
2022/06/06 14:02:14;;;;;;;0.45;0.32;;;26.30;41.60;;;;;;5027384;28;20072;-43
2022/06/06 14:05:02;;;;;;;1.38;0.40;;;26.40;41.60;;;;;;5062270;22;21428;-43
2022/06/06 14:07:45;;;;;;;6.00;0.90;;;26.60;40.70;;;;;;5045659;28;20065;-45
2022/06/06 14:10:16;;;;;;;1.13;0.30;;;26.60;39.80;;;;;;5045068;28;20049;-51
2022/06/06 14:13:02;;;;;;;0.30;0.30;;;26.70;40.10;;;;;;5042742;28;20052;-53
2022/06/06 14:15:29;;;;;;;0.63;0.30;;;26.90;40.40;;;;;;5056595;28;20075;-53
2022/06/06 14:18:03;;;;;;;2.67;0.50;;;27.10;40.50;;;;;;5039323;28;20045;-52
2022/06/06 14:20:46;;;;;;;3.67;0.20;;;27.30;39.80;;;;;;5046736;28;20037;-53
2022/06/06 14:23:43;;;;;;;0.70;0.30;;;27.60;40.00;;;;;;5042138;28;20572;-54
2022/06/06 14:26:14;;;;;;;5.45;1.48;;;27.90;39.10;;;;;;5041229;28;20916;-53
2022/06/06 14:28:43;;;;;;;1.05;0.40;;;28.20;39.40;;;;;;5048369;28;20084;-54